メインページ
METAR-TAF:

METAR-TAF

空港 :

チュニス, チュニジア

チュニス・カルタゴ国際空港

緯度: 36-50N, 経度: 010-14E, 海抜: 3m

現時点の気象観測

当レポートは23分前の20:30(UTC)に作成
南/南東の風 7kt
気温 14°C
湿度 51%
気圧 1010 hPa
視程10km以上
高度2600ftの雲はほとんどない

METAR: DTTA 112030Z 16007KT 9999 FEW026 14/04 Q1010 NOSIG

時間: 21:53 (20:53 UTC)

予報

当レポートは3時間29分前の17:24(UTC)に作成
予報は11日の 18時(UTC)から 12日の 18時(UTC)まで有効
の風 15kt、最大30ktの突風を伴う
視程10km以上
高度2600ftの雲はほとんどない

TAF: DTTA 111724Z 1118/1218 18015G30KT 9999 FEW026

4,000以上の空港の気象観測と天気予報(METAR報とTAF報)

利用可能な観測所は地図上に黄色い丸と赤い丸で示す。

丸の上にカーソルを重ねると観測所名を参照できる。

次にクリックすると気象観測と天気予報を参照できる。

マップの切り替え:黒色「×」印の緑ボタンをクリックして拡大、「-」印の緑ボタンをクリックして縮小、緑色の三角印をクリックして隣りの地図に切り替え


METAR-TAF: